Recent forum postings ...
2021-04-13
Change wake turbulence after filing FP
2021-04-12
KLM-VA site "not responding", is my flight toast?
2021-04-10
Fly KLM Mon CTL
2021-04-09
SCHEDULE FLIGHT BOEING 737
2021-04-08
Law and rules in KLM VA
2021-04-04
Flying a Tour.


 
Aircraft IdentFlightrulesType of Flight
KLM767VG
NumberType of AircraftWake turbulenceEquipmentTransponder Type
1DC3MSS
Departure AerodromeDeparture Time
KSLC1415
Cruising speedFlight level
N0180F8000
Route
DTC



Destination AerodromeTotal EETAlternative Aerodrome
KSUN0100KLGU
Other information
DOF/210408 REG/KLM767 RMK/KLMVA RMK/WILDWEST

Explanation of the IVAO flightplan

Salt Lake City Intl (KSLC), United States

METAR
KSLC 081254Z 14007KT 10SM FEW130 07/M03 A2994 RMK AO2 SLP115 T00671033

WINDSE at 8 mph
VISIBILITY10 miles
CONDITIONS
CLOUDSpartly cloudy
TEMP45°F (7°C)
WIND CHILL41°F (5°C)
DEWPT27°F (-3°C)
HUMIDITY49%
BAROMETER1014 hPa (29.94 in Hg)

RUNWAYS

RunwayDesignatorSurfaceHeadingLengthWidthAltitudeILSILS-Freq.Glidescope Pitch
16LEFTASPHALT174.973660.95 ft45.72 ft1288.39 ftCAT III ILS/DME 34R109.53
16RIGHTCONCRETE174.993659.43 ft45.72 ft1288.39 ftCAT III ILS/DME 34L111.93

Friedman Meml (KSUN), United States

METAR
KSUN 081347Z 31006KT 10SM FEW120 01/M05 A2992

WINDNW at 7 mph
VISIBILITY10 miles
CONDITIONS
CLOUDSpartly cloudy
TEMP34°F (1°C)
WIND CHILL28°F (-2°C)
DEWPT23°F (-5°C)
HUMIDITY65%
BAROMETER1013 hPa (29.92 in Hg)

Registration TimeGroundspeedAltitudeTransponderHeadingLongitudeLatitudeOn ground
13:39 08-04-20210 kts4226 ft2000227-111.97840.7856Yes
13:420 kts4226 ft2000227-111.97840.7856Yes
13:450 kts4226 ft2000227-111.97840.7856Yes
13:480 kts4226 ft2000227-111.97840.7856Yes
13:510 kts4226 ft2000227-111.97840.7856Yes
13:540 kts4226 ft2000227-111.97840.7856Yes
13:570 kts4226 ft2000227-111.97840.7856Yes
14:000 kts4226 ft2000227-111.97840.7856Yes
14:037 kts4227 ft2000186-111.97640.7847Yes
14:0694 kts4671 ft2000351-111.97840.7996No
14:09154 kts6903 ft2000348-112.03740.8968No
14:12141 kts8341 ft20001-112.04241.0128No
14:15186 kts9199 ft2000344-112.07341.1334No
14:18209 kts7889 ft2000342-112.12541.3018No
14:21173 kts8027 ft2000344-112.17741.4472No
14:24178 kts8027 ft2000319-112.24641.5832No
14:27167 kts8636 ft2000319-112.37441.6908No
14:30176 kts9014 ft2000317-113.35742.2395No
14:33108 kts8391 ft2000334-114.16443.292No
14:3690 kts7594 ft2000335-114.20543.379No
14:3983 kts6620 ft2000329-114.25243.4489No
14:4246 kts5283 ft2000324-114.29343.5013Yes
14:450 kts5308 ft2000356-114.30143.5073Yes
14:481 kts5309 ft2000175-114.30243.5078Yes